sensor_id;sensor_type;location;lat;lon;timestamp;pressure;altitude;pressure_sealevel;temperature;humidity
18509;BME280;9383;50.928;12.116;2023-07-29T00:00:44;98213.84;;;19.95;94.52
18509;BME280;9383;50.928;12.116;2023-07-29T00:03:11;98204.19;;;19.93;94.52
18509;BME280;9383;50.928;12.116;2023-07-29T00:05:38;98207.00;;;19.91;94.76
18509;BME280;9383;50.928;12.116;2023-07-29T00:08:05;98208.94;;;19.89;94.58
18509;BME280;9383;50.928;12.116;2023-07-29T00:10:34;98211.78;;;19.88;94.62
18509;BME280;9383;50.928;12.116;2023-07-29T00:13:03;98207.50;;;19.85;94.99
18509;BME280;9383;50.928;12.116;2023-07-29T00:15:30;98207.63;;;19.83;95.73
18509;BME280;9383;50.928;12.116;2023-07-29T00:17:57;98196.31;;;19.80;95.73
18509;BME280;9383;50.928;12.116;2023-07-29T00:20:23;98194.72;;;19.77;96.08
18509;BME280;9383;50.928;12.116;2023-07-29T00:22:50;98191.59;;;19.72;96.22
18509;BME280;9383;50.928;12.116;2023-07-29T00:25:19;98187.44;;;19.68;96.20
18509;BME280;9383;50.928;12.116;2023-07-29T00:27:45;98191.38;;;19.64;96.43
18509;BME280;9383;50.928;12.116;2023-07-29T00:30:12;98188.97;;;19.61;96.72
18509;BME280;9383;50.928;12.116;2023-07-29T00:32:38;98183.81;;;19.58;97.05
18509;BME280;9383;50.928;12.116;2023-07-29T00:35:07;98185.94;;;19.54;97.27
18509;BME280;9383;50.928;12.116;2023-07-29T00:37:34;98188.03;;;19.50;97.47
18509;BME280;9383;50.928;12.116;2023-07-29T00:40:00;98183.75;;;19.48;97.51
18509;BME280;9383;50.928;12.116;2023-07-29T00:42:27;98184.00;;;19.45;97.58
18509;BME280;9383;50.928;12.116;2023-07-29T00:44:53;98188.78;;;19.41;97.51
18509;BME280;9383;50.928;12.116;2023-07-29T00:47:21;98189.16;;;19.36;97.35
18509;BME280;9383;50.928;12.116;2023-07-29T00:49:48;98196.50;;;19.34;97.27
18509;BME280;9383;50.928;12.116;2023-07-29T00:52:15;98189.56;;;19.32;97.63
18509;BME280;9383;50.928;12.116;2023-07-29T00:54:43;98189.81;;;19.29;98.54
18509;BME280;9383;50.928;12.116;2023-07-29T00:57:10;98178.47;;;19.25;98.86
18509;BME280;9383;50.928;12.116;2023-07-29T00:59:40;98188.38;;;19.24;99.13
18509;BME280;9383;50.928;12.116;2023-07-29T01:02:07;98179.59;;;19.22;99.27
18509;BME280;9383;50.928;12.116;2023-07-29T01:04:34;98185.94;;;19.21;99.47
18509;BME280;9383;50.928;12.116;2023-07-29T01:12:51;98175.81;;;19.14;99.92
18509;BME280;9383;50.928;12.116;2023-07-29T01:15:33;98173.28;;;19.12;99.93
18509;BME280;9383;50.928;12.116;2023-07-29T01:18:11;98182.31;;;19.11;100.00
18509;BME280;9383;50.928;12.116;2023-07-29T01:20:43;98178.91;;;19.09;100.00
18509;BME280;9383;50.928;12.116;2023-07-29T01:23:10;98172.78;;;19.07;100.00
18509;BME280;9383;50.928;12.116;2023-07-29T01:25:36;98177.44;;;19.05;100.00
18509;BME280;9383;50.928;12.116;2023-07-29T01:28:03;98174.91;;;19.03;100.00
18509;BME280;9383;50.928;12.116;2023-07-29T01:30:38;98171.44;;;19.01;100.00
18509;BME280;9383;50.928;12.116;2023-07-29T01:33:15;98178.69;;;19.01;100.00
18509;BME280;9383;50.928;12.116;2023-07-29T01:36:03;98173.31;;;19.01;100.00
18509;BME280;9383;50.928;12.116;2023-07-29T01:38:36;98170.63;;;19.01;100.00
18509;BME280;9383;50.928;12.116;2023-07-29T01:41:07;98176.00;;;19.01;100.00
18509;BME280;9383;50.928;12.116;2023-07-29T01:43:34;98176.00;;;19.01;100.00
18509;BME280;9383;50.928;12.116;2023-07-29T01:46:05;98192.09;;;19.01;100.00
18509;BME280;9383;50.928;12.116;2023-07-29T01:48:32;98191.25;;;19.00;100.00
18509;BME280;9383;50.928;12.116;2023-07-29T01:50:58;98185.88;;;19.00;100.00
18509;BME280;9383;50.928;12.116;2023-07-29T01:53:25;98181.38;;;19.01;100.00
18509;BME280;9383;50.928;12.116;2023-07-29T01:55:52;98189.41;;;19.01;100.00
18509;BME280;9383;50.928;12.116;2023-07-29T01:58:20;98190.25;;;19.01;100.00
18509;BME280;9383;50.928;12.116;2023-07-29T02:00:46;98189.41;;;19.01;100.00
18509;BME280;9383;50.928;12.116;2023-07-29T02:03:13;98186.72;;;19.01;100.00
18509;BME280;9383;50.928;12.116;2023-07-29T02:05:39;98185.03;;;19.00;100.00
18509;BME280;9383;50.928;12.116;2023-07-29T02:08:06;98185.03;;;19.00;100.00
18509;BME280;9383;50.928;12.116;2023-07-29T02:10:33;98188.66;;;18.98;100.00
18509;BME280;9383;50.928;12.116;2023-07-29T02:12:59;98178.03;;;18.97;100.00
18509;BME280;9383;50.928;12.116;2023-07-29T02:15:26;98180.84;;;18.95;100.00
18509;BME280;9383;50.928;12.116;2023-07-29T02:17:52;98189.88;;;18.94;100.00
18509;BME280;9383;50.928;12.116;2023-07-29T02:20:19;98182.81;;;18.93;100.00
18509;BME280;9383;50.928;12.116;2023-07-29T02:22:46;98178.41;;;18.92;100.00
18509;BME280;9383;50.928;12.116;2023-07-29T02:25:13;98178.41;;;18.92;100.00
18509;BME280;9383;50.928;12.116;2023-07-29T02:27:40;98165.97;;;18.91;100.00
18509;BME280;9383;50.928;12.116;2023-07-29T02:30:07;98171.34;;;18.91;100.00
18509;BME280;9383;50.928;12.116;2023-07-29T02:32:36;98174.16;;;18.90;100.00
18509;BME280;9383;50.928;12.116;2023-07-29T02:35:02;98175.00;;;18.90;100.00
18509;BME280;9383;50.928;12.116;2023-07-29T02:37:29;98173.31;;;18.89;100.00
18509;BME280;9383;50.928;12.116;2023-07-29T02:39:55;98176.97;;;18.88;100.00
18509;BME280;9383;50.928;12.116;2023-07-29T02:42:21;98172.56;;;18.87;100.00
18509;BME280;9383;50.928;12.116;2023-07-29T02:44:48;98166.34;;;18.87;100.00
18509;BME280;9383;50.928;12.116;2023-07-29T02:47:14;98161.94;;;18.86;100.00
18509;BME280;9383;50.928;12.116;2023-07-29T02:49:41;98166.47;;;18.85;100.00
18509;BME280;9383;50.928;12.116;2023-07-29T02:52:09;98162.94;;;18.84;100.00
18509;BME280;9383;50.928;12.116;2023-07-29T02:54:35;98159.41;;;18.84;100.00
18509;BME280;9383;50.928;12.116;2023-07-29T02:57:02;98160.25;;;18.84;100.00
18509;BME280;9383;50.928;12.116;2023-07-29T02:59:28;98161.94;;;18.86;100.00
18509;BME280;9383;50.928;12.116;2023-07-29T03:01:55;98167.22;;;18.87;100.00
18509;BME280;9383;50.928;12.116;2023-07-29T03:04:21;98162.81;;;18.86;100.00
18509;BME280;9383;50.928;12.116;2023-07-29T03:06:49;98165.50;;;18.86;100.00
18509;BME280;9383;50.928;12.116;2023-07-29T03:09:16;98168.19;;;18.86;100.00
18509;BME280;9383;50.928;12.116;2023-07-29T03:11:42;98171.84;;;18.85;100.00
18509;BME280;9383;50.928;12.116;2023-07-29T03:14:10;98175.53;;;18.84;100.00
18509;BME280;9383;50.928;12.116;2023-07-29T03:16:37;98173.78;;;18.83;100.00
18509;BME280;9383;50.928;12.116;2023-07-29T03:19:03;98168.66;;;18.80;100.00
18509;BME280;9383;50.928;12.116;2023-07-29T03:21:31;98166.25;;;18.77;100.00
18509;BME280;9383;50.928;12.116;2023-07-29T03:23:57;98168.22;;;18.75;100.00
18509;BME280;9383;50.928;12.116;2023-07-29T03:26:24;98166.63;;;18.72;100.00
18509;BME280;9383;50.928;12.116;2023-07-29T03:28:51;98165.03;;;18.69;100.00
18509;BME280;9383;50.928;12.116;2023-07-29T03:31:18;98097.88;;;18.25;100.00
18509;BME280;9383;50.928;12.116;2023-07-29T03:33:44;98155.78;;;18.62;100.00
18509;BME280;9383;50.928;12.116;2023-07-29T03:36:11;98158.72;;;18.59;100.00
18509;BME280;9383;50.928;12.116;2023-07-29T03:38:37;98157.25;;;18.55;100.00
18509;BME280;9383;50.928;12.116;2023-07-29T03:41:10;98157.50;;;18.52;100.00
18509;BME280;9383;50.928;12.116;2023-07-29T03:43:37;98159.56;;;18.48;100.00
18509;BME280;9383;50.928;12.116;2023-07-29T03:46:04;98149.09;;;18.45;100.00
18509;BME280;9383;50.928;12.116;2023-07-29T03:48:31;98149.34;;;18.42;100.00
18509;BME280;9383;50.928;12.116;2023-07-29T03:50:58;98148.72;;;18.38;100.00
18509;BME280;9383;50.928;12.116;2023-07-29T03:53:25;98150.81;;;18.35;100.00
18509;BME280;9383;50.928;12.116;2023-07-29T03:55:51;98147.50;;;18.31;100.00
18509;BME280;9383;50.928;12.116;2023-07-29T03:58:18;98142.38;;;18.28;100.00
18509;BME280;9383;50.928;12.116;2023-07-29T04:00:44;98146.16;;;18.25;100.00
18509;BME280;9383;50.928;12.116;2023-07-29T04:03:11;98143.72;;;18.22;100.00
18509;BME280;9383;50.928;12.116;2023-07-29T04:05:37;98144.97;;;18.18;100.00
18509;BME280;9383;50.928;12.116;2023-07-29T04:08:04;98139.84;;;18.15;100.00
18509;BME280;9383;50.928;12.116;2023-07-29T04:10:30;98151.66;;;18.12;100.00
18509;BME280;9383;50.928;12.116;2023-07-29T04:12:58;98149.22;;;18.09;100.00
18509;BME280;9383;50.928;12.116;2023-07-29T04:15:24;98145.78;;;18.07;100.00
18509;BME280;9383;50.928;12.116;2023-07-29T04:17:51;98147.53;;;18.08;100.00
18509;BME280;9383;50.928;12.116;2023-07-29T04:20:17;98141.28;;;18.08;100.00
18509;BME280;9383;50.928;12.116;2023-07-29T04:22:44;98143.88;;;18.09;100.00
18509;BME280;9383;50.928;12.116;2023-07-29T04:25:10;98142.88;;;18.10;100.00
18509;BME280;9383;50.928;12.116;2023-07-29T04:27:37;98127.53;;;18.12;100.00
18509;BME280;9383;50.928;12.116;2023-07-29T04:30:05;98132.63;;;18.16;100.00
18509;BME280;9383;50.928;12.116;2023-07-29T04:32:32;98140.44;;;18.19;100.00
18509;BME280;9383;50.928;12.116;2023-07-29T04:34:58;98129.34;;;18.23;100.00
18509;BME280;9383;50.928;12.116;2023-07-29T04:37:25;98123.59;;;18.28;100.00
18509;BME280;9383;50.928;12.116;2023-07-29T04:39:51;98126.78;;;18.33;100.00
18509;BME280;9383;50.928;12.116;2023-07-29T04:42:18;98135.19;;;18.40;100.00
18509;BME280;9383;50.928;12.116;2023-07-29T04:44:44;98126.53;;;18.48;100.00
18509;BME280;9383;50.928;12.116;2023-07-29T04:47:11;98121.38;;;18.56;100.00
18509;BME280;9383;50.928;12.116;2023-07-29T04:49:37;98115.38;;;18.64;100.00
18509;BME280;9383;50.928;12.116;2023-07-29T04:52:04;98113.66;;;18.74;100.00
18509;BME280;9383;50.928;12.116;2023-07-29T04:54:30;98111.19;;;18.82;100.00
18509;BME280;9383;50.928;12.116;2023-07-29T04:56:58;98112.97;;;18.93;100.00
18509;BME280;9383;50.928;12.116;2023-07-29T04:59:25;98111.38;;;19.02;100.00
18509;BME280;9383;50.928;12.116;2023-07-29T05:01:51;98112.47;;;19.11;100.00
18509;BME280;9383;50.928;12.116;2023-07-29T05:04:19;98123.28;;;19.21;100.00
18509;BME280;9383;50.928;12.116;2023-07-29T05:06:47;98118.13;;;19.29;100.00
18509;BME280;9383;50.928;12.116;2023-07-29T05:09:18;98131.63;;;19.39;100.00
18509;BME280;9383;50.928;12.116;2023-07-29T05:11:46;98129.00;;;19.49;100.00
18509;BME280;9383;50.928;12.116;2023-07-29T05:14:17;98124.22;;;19.52;100.00
18509;BME280;9383;50.928;12.116;2023-07-29T05:16:44;98129.06;;;19.59;100.00
18509;BME280;9383;50.928;12.116;2023-07-29T05:19:11;98133.22;;;19.63;100.00
18509;BME280;9383;50.928;12.116;2023-07-29T05:21:38;98135.50;;;19.67;100.00
18509;BME280;9383;50.928;12.116;2023-07-29T05:24:06;98141.06;;;19.76;100.00
18509;BME280;9383;50.928;12.116;2023-07-29T05:26:32;98136.75;;;19.85;100.00
18509;BME280;9383;50.928;12.116;2023-07-29T05:28:59;98134.38;;;19.91;100.00
18509;BME280;9383;50.928;12.116;2023-07-29T05:31:26;98076.03;;;19.61;100.00
18509;BME280;9383;50.928;12.116;2023-07-29T05:33:52;98141.53;;;20.02;99.22
18509;BME280;9383;50.928;12.116;2023-07-29T05:36:19;98144.41;;;20.10;99.22
18509;BME280;9383;50.928;12.116;2023-07-29T05:38:45;98132.81;;;20.20;99.21
18509;BME280;9383;50.928;12.116;2023-07-29T05:41:12;98131.03;;;20.30;98.91
18509;BME280;9383;50.928;12.116;2023-07-29T05:43:38;98140.00;;;20.41;98.13
18509;BME280;9383;50.928;12.116;2023-07-29T05:46:05;98133.94;;;20.48;97.23
18509;BME280;9383;50.928;12.116;2023-07-29T05:48:31;98141.91;;;20.60;96.55
18509;BME280;9383;50.928;12.116;2023-07-29T05:50:59;98142.47;;;20.63;94.88
18509;BME280;9383;50.928;12.116;2023-07-29T05:53:25;98145.88;;;20.65;94.09
18509;BME280;9383;50.928;12.116;2023-07-29T05:55:53;98139.63;;;20.65;93.58
18509;BME280;9383;50.928;12.116;2023-07-29T05:58:19;98141.78;;;20.71;93.75
18509;BME280;9383;50.928;12.116;2023-07-29T06:00:46;98135.69;;;20.79;93.81
18509;BME280;9383;50.928;12.116;2023-07-29T06:03:12;98151.31;;;20.85;92.78
18509;BME280;9383;50.928;12.116;2023-07-29T06:05:41;98138.72;;;20.86;91.07
18509;BME280;9383;50.928;12.116;2023-07-29T06:08:08;98139.44;;;20.88;91.30
18509;BME280;9383;50.928;12.116;2023-07-29T06:10:34;98137.19;;;20.93;91.27
18509;BME280;9383;50.928;12.116;2023-07-29T06:13:01;98132.09;;;21.00;91.14
18509;BME280;9383;50.928;12.116;2023-07-29T06:15:29;98134.22;;;21.06;89.73
18509;BME280;9383;50.928;12.116;2023-07-29T06:17:57;98126.41;;;21.13;89.62
18509;BME280;9383;50.928;12.116;2023-07-29T06:20:24;98127.81;;;21.17;88.80
18509;BME280;9383;50.928;12.116;2023-07-29T06:22:50;98125.56;;;21.22;88.89
18509;BME280;9383;50.928;12.116;2023-07-29T06:25:17;98121.59;;;21.26;88.29
18509;BME280;9383;50.928;12.116;2023-07-29T06:27:44;98130.25;;;21.30;87.94
18509;BME280;9383;50.928;12.116;2023-07-29T06:30:11;98131.66;;;21.34;88.11
18509;BME280;9383;50.928;12.116;2023-07-29T06:32:38;98126.13;;;21.35;86.91
18509;BME280;9383;50.928;12.116;2023-07-29T06:35:05;98127.97;;;21.35;85.82
18509;BME280;9383;50.928;12.116;2023-07-29T06:37:32;98141.59;;;21.33;85.64
18509;BME280;9383;50.928;12.116;2023-07-29T06:39:59;98143.88;;;21.38;86.14
18509;BME280;9383;50.928;12.116;2023-07-29T06:42:26;98126.41;;;21.32;84.94
18509;BME280;9383;50.928;12.116;2023-07-29T06:44:52;98124.44;;;21.34;85.34
18509;BME280;9383;50.928;12.116;2023-07-29T06:47:19;98128.97;;;21.34;85.14
18509;BME280;9383;50.928;12.116;2023-07-29T06:49:46;98122.31;;;21.38;85.49
18509;BME280;9383;50.928;12.116;2023-07-29T06:52:13;98115.31;;;21.45;86.34
18509;BME280;9383;50.928;12.116;2023-07-29T06:54:40;98103.97;;;21.52;85.40
18509;BME280;9383;50.928;12.116;2023-07-29T06:57:07;98109.22;;;21.53;84.16
18509;BME280;9383;50.928;12.116;2023-07-29T06:59:34;98114.47;;;21.55;83.99
18509;BME280;9383;50.928;12.116;2023-07-29T07:02:01;98110.22;;;21.62;83.54
18509;BME280;9383;50.928;12.116;2023-07-29T07:04:28;98110.66;;;21.67;83.28
18509;BME280;9383;50.928;12.116;2023-07-29T07:06:55;98104.38;;;21.67;82.03
18509;BME280;9383;50.928;12.116;2023-07-29T07:09:22;98100.44;;;21.71;81.96
18509;BME280;9383;50.928;12.116;2023-07-29T07:11:49;98087.34;;;21.76;81.74
18509;BME280;9383;50.928;12.116;2023-07-29T07:14:16;98073.53;;;21.79;81.89
18509;BME280;9383;50.928;12.116;2023-07-29T07:16:42;98071.41;;;21.83;81.84
18509;BME280;9383;50.928;12.116;2023-07-29T07:19:09;98079.63;;;21.91;82.31
18509;BME280;9383;50.928;12.116;2023-07-29T07:21:36;98065.00;;;21.94;81.63
18509;BME280;9383;50.928;12.116;2023-07-29T07:24:02;98064.53;;;21.98;81.81
18509;BME280;9383;50.928;12.116;2023-07-29T07:26:30;98065.09;;;22.02;81.85
18509;BME280;9383;50.928;12.116;2023-07-29T07:28:56;98067.47;;;22.05;81.41
18509;BME280;9383;50.928;12.116;2023-07-29T07:31:23;98078.00;;;22.08;81.01
18509;BME280;9383;50.928;12.116;2023-07-29T07:33:50;98083.66;;;22.15;81.21
18509;BME280;9383;50.928;12.116;2023-07-29T07:36:17;98084.03;;;22.20;81.43
18509;BME280;9383;50.928;12.116;2023-07-29T07:38:44;98085.91;;;22.19;81.62
18509;BME280;9383;50.928;12.116;2023-07-29T07:41:10;98086.09;;;22.08;81.67
18509;BME280;9383;50.928;12.116;2023-07-29T07:43:37;98086.78;;;22.10;81.87
18509;BME280;9383;50.928;12.116;2023-07-29T07:46:04;98079.69;;;22.09;82.68
18509;BME280;9383;50.928;12.116;2023-07-29T07:48:31;98074.31;;;22.09;83.31
18509;BME280;9383;50.928;12.116;2023-07-29T07:51:00;98078.53;;;22.12;83.54
18509;BME280;9383;50.928;12.116;2023-07-29T07:53:26;98081.41;;;22.10;82.58
18509;BME280;9383;50.928;12.116;2023-07-29T07:55:53;98080.78;;;22.16;83.15
18509;BME280;9383;50.928;12.116;2023-07-29T07:58:19;98089.00;;;22.25;83.75
18509;BME280;9383;50.928;12.116;2023-07-29T08:00:46;98084.31;;;22.27;82.60
18509;BME280;9383;50.928;12.116;2023-07-29T08:03:12;98085.84;;;22.29;83.26
18509;BME280;9383;50.928;12.116;2023-07-29T08:05:40;98088.44;;;22.21;82.06
18509;BME280;9383;50.928;12.116;2023-07-29T08:08:07;98083.66;;;22.15;82.04
18509;BME280;9383;50.928;12.116;2023-07-29T08:10:33;98076.56;;;22.14;83.35
18509;BME280;9383;50.928;12.116;2023-07-29T08:13:00;98073.69;;;22.15;83.96
18509;BME280;9383;50.928;12.116;2023-07-29T08:15:30;98067.16;;;22.18;84.26
18509;BME280;9383;50.928;12.116;2023-07-29T08:17:57;98072.94;;;22.23;84.68
18509;BME280;9383;50.928;12.116;2023-07-29T08:20:23;98070.50;;;22.30;84.86
18509;BME280;9383;50.928;12.116;2023-07-29T08:22:50;98074.16;;;22.39;85.53
18509;BME280;9383;50.928;12.116;2023-07-29T08:25:16;98073.69;;;22.43;85.95
18509;BME280;9383;50.928;12.116;2023-07-29T08:27:44;98074.50;;;22.54;86.17
18509;BME280;9383;50.928;12.116;2023-07-29T08:30:10;98069.75;;;22.66;86.79
18509;BME280;9383;50.928;12.116;2023-07-29T08:32:37;98074.94;;;22.77;86.63
18509;BME280;9383;50.928;12.116;2023-07-29T08:35:05;98068.47;;;22.88;86.83
18509;BME280;9383;50.928;12.116;2023-07-29T08:37:32;98078.50;;;22.96;85.08
18509;BME280;9383;50.928;12.116;2023-07-29T08:39:58;98081.75;;;22.99;84.07
18509;BME280;9383;50.928;12.116;2023-07-29T08:42:29;98086.13;;;23.00;81.86
18509;BME280;9383;50.928;12.116;2023-07-29T08:44:56;98087.00;;;23.01;80.47
18509;BME280;9383;50.928;12.116;2023-07-29T08:47:27;98091.63;;;22.90;78.74
18509;BME280;9383;50.928;12.116;2023-07-29T08:49:54;98080.88;;;22.99;79.72
18509;BME280;9383;50.928;12.116;2023-07-29T08:52:21;98082.88;;;22.97;78.81
18509;BME280;9383;50.928;12.116;2023-07-29T08:54:49;98084.31;;;23.01;79.04
18509;BME280;9383;50.928;12.116;2023-07-29T08:57:16;98084.53;;;23.08;79.68
18509;BME280;9383;50.928;12.116;2023-07-29T08:59:43;98090.91;;;23.07;78.78
18509;BME280;9383;50.928;12.116;2023-07-29T09:02:11;98100.50;;;23.01;78.25
18509;BME280;9383;50.928;12.116;2023-07-29T09:04:38;98096.34;;;22.88;78.17
18509;BME280;9383;50.928;12.116;2023-07-29T09:07:05;98103.72;;;22.86;78.64
18509;BME280;9383;50.928;12.116;2023-07-29T09:09:33;98099.63;;;22.82;78.70
18509;BME280;9383;50.928;12.116;2023-07-29T09:12:00;98106.06;;;22.81;78.78
18509;BME280;9383;50.928;12.116;2023-07-29T09:14:27;98102.56;;;22.71;77.84
18509;BME280;9383;50.928;12.116;2023-07-29T09:16:54;98093.75;;;22.69;78.42
18509;BME280;9383;50.928;12.116;2023-07-29T09:19:22;98100.31;;;22.66;78.25
18509;BME280;9383;50.928;12.116;2023-07-29T09:21:51;98098.38;;;22.58;78.81
18509;BME280;9383;50.928;12.116;2023-07-29T09:24:18;98095.28;;;22.53;78.67
18509;BME280;9383;50.928;12.116;2023-07-29T09:26:57;98084.31;;;22.55;79.56
18509;BME280;9383;50.928;12.116;2023-07-29T09:29:28;98025.34;;;22.22;80.25
18509;BME280;9383;50.928;12.116;2023-07-29T09:32:22;98086.25;;;22.62;80.75
18509;BME280;9383;50.928;12.116;2023-07-29T09:34:49;98075.53;;;22.71;81.12
18509;BME280;9383;50.928;12.116;2023-07-29T09:37:22;98065.97;;;22.76;80.17
18509;BME280;9383;50.928;12.116;2023-07-29T09:39:49;98070.78;;;22.83;80.23
18509;BME280;9383;50.928;12.116;2023-07-29T09:42:18;98071.53;;;22.93;80.45
18509;BME280;9383;50.928;12.116;2023-07-29T09:44:45;98066.34;;;23.00;79.43
18509;BME280;9383;50.928;12.116;2023-07-29T09:47:22;98075.41;;;23.09;79.28
18509;BME280;9383;50.928;12.116;2023-07-29T09:49:50;98072.06;;;23.15;77.88
18509;BME280;9383;50.928;12.116;2023-07-29T09:52:18;98079.84;;;23.18;76.71
18509;BME280;9383;50.928;12.116;2023-07-29T09:54:45;98079.25;;;23.24;77.25
18509;BME280;9383;50.928;12.116;2023-07-29T09:57:18;98086.06;;;23.28;76.74
18509;BME280;9383;50.928;12.116;2023-07-29T09:59:54;98076.13;;;23.29;75.57
18509;BME280;9383;50.928;12.116;2023-07-29T10:02:21;98084.91;;;23.31;75.93
18509;BME280;9383;50.928;12.116;2023-07-29T10:04:48;98086.59;;;23.32;75.67
18509;BME280;9383;50.928;12.116;2023-07-29T10:07:16;98086.69;;;23.22;74.89
18509;BME280;9383;50.928;12.116;2023-07-29T10:09:46;98091.22;;;23.22;75.79
18509;BME280;9383;50.928;12.116;2023-07-29T10:12:13;98086.44;;;23.15;75.14
18509;BME280;9383;50.928;12.116;2023-07-29T10:14:41;98081.88;;;23.16;75.74
18509;BME280;9383;50.928;12.116;2023-07-29T10:17:08;98084.75;;;23.14;75.96
18509;BME280;9383;50.928;12.116;2023-07-29T10:19:36;98088.06;;;23.08;75.93
18509;BME280;9383;50.928;12.116;2023-07-29T10:22:03;98085.00;;;23.03;76.06
18509;BME280;9383;50.928;12.116;2023-07-29T10:24:34;98075.66;;;22.97;76.61
18509;BME280;9383;50.928;12.116;2023-07-29T10:27:02;98077.34;;;22.98;77.09
18509;BME280;9383;50.928;12.116;2023-07-29T10:29:38;98086.28;;;22.99;76.47
18509;BME280;9383;50.928;12.116;2023-07-29T10:32:05;98085.59;;;22.97;76.27
18509;BME280;9383;50.928;12.116;2023-07-29T10:34:35;98088.69;;;23.02;76.89
18509;BME280;9383;50.928;12.116;2023-07-29T10:37:03;98089.84;;;22.99;76.33
18509;BME280;9383;50.928;12.116;2023-07-29T10:39:38;98084.31;;;23.01;76.63
18509;BME280;9383;50.928;12.116;2023-07-29T10:42:07;98086.81;;;23.02;76.73
18509;BME280;9383;50.928;12.116;2023-07-29T10:47:26;98086.69;;;23.22;76.89
18509;BME280;9383;50.928;12.116;2023-07-29T10:49:56;98070.97;;;23.26;75.30
18509;BME280;9383;50.928;12.116;2023-07-29T10:55:03;98065.88;;;23.41;75.86
18509;BME280;9383;50.928;12.116;2023-07-29T10:57:50;98063.25;;;23.49;75.86
18509;BME280;9383;50.928;12.116;2023-07-29T11:00:20;98066.50;;;23.53;75.38
18509;BME280;9383;50.928;12.116;2023-07-29T11:03:01;98055.34;;;23.56;75.11
18509;BME280;9383;50.928;12.116;2023-07-29T11:08:22;98062.78;;;23.54;73.41
18509;BME280;9383;50.928;12.116;2023-07-29T11:11:19;98057.44;;;23.44;73.06
18509;BME280;9383;50.928;12.116;2023-07-29T11:13:46;98053.22;;;23.41;72.28
18509;BME280;9383;50.928;12.116;2023-07-29T11:16:15;98050.78;;;23.30;72.32
18509;BME280;9383;50.928;12.116;2023-07-29T11:18:43;98038.09;;;23.30;73.22
18509;BME280;9383;50.928;12.116;2023-07-29T11:21:10;98046.19;;;23.30;73.58
18509;BME280;9383;50.928;12.116;2023-07-29T11:23:37;98032.88;;;23.37;74.03
18509;BME280;9383;50.928;12.116;2023-07-29T11:26:05;98034.75;;;23.37;73.43
18509;BME280;9383;50.928;12.116;2023-07-29T11:28:37;98034.44;;;23.40;73.89
18509;BME280;9383;50.928;12.116;2023-07-29T11:31:04;98035.31;;;23.40;73.71
18509;BME280;9383;50.928;12.116;2023-07-29T11:33:30;98043.34;;;23.32;74.08
18509;BME280;9383;50.928;12.116;2023-07-29T11:35:58;98039.53;;;23.43;74.43
18509;BME280;9383;50.928;12.116;2023-07-29T11:38:26;98039.81;;;23.58;75.25
18509;BME280;9383;50.928;12.116;2023-07-29T11:41:00;98032.97;;;23.72;74.05
18509;BME280;9383;50.928;12.116;2023-07-29T11:43:29;98031.13;;;23.81;73.60
18509;BME280;9383;50.928;12.116;2023-07-29T11:46:01;98051.25;;;23.78;70.94
18509;BME280;9383;50.928;12.116;2023-07-29T11:48:30;98051.19;;;23.70;71.62
18509;BME280;9383;50.928;12.116;2023-07-29T11:50:57;98050.22;;;23.71;72.06
18509;BME280;9383;50.928;12.116;2023-07-29T11:53:30;98050.56;;;23.76;72.09
18509;BME280;9383;50.928;12.116;2023-07-29T11:55:58;98047.16;;;23.74;71.48
18509;BME280;9383;50.928;12.116;2023-07-29T11:58:26;98051.72;;;23.73;71.86
18509;BME280;9383;50.928;12.116;2023-07-29T12:00:53;98047.72;;;23.78;72.84
18509;BME280;9383;50.928;12.116;2023-07-29T12:03:21;98040.94;;;23.82;72.74
18509;BME280;9383;50.928;12.116;2023-07-29T12:05:49;98037.44;;;23.89;71.82
18509;BME280;9383;50.928;12.116;2023-07-29T12:08:15;98034.25;;;23.94;70.95
18509;BME280;9383;50.928;12.116;2023-07-29T12:10:43;98026.41;;;24.09;72.29
18509;BME280;9383;50.928;12.116;2023-07-29T12:13:10;98037.53;;;24.06;69.41
18509;BME280;9383;50.928;12.116;2023-07-29T12:15:38;98019.78;;;24.12;69.67
18509;BME280;9383;50.928;12.116;2023-07-29T12:18:05;98024.72;;;24.16;68.28
18509;BME280;9383;50.928;12.116;2023-07-29T12:20:32;98023.75;;;24.26;69.06
18509;BME280;9383;50.928;12.116;2023-07-29T12:23:00;98024.28;;;24.29;66.86
18509;BME280;9383;50.928;12.116;2023-07-29T12:25:32;98018.47;;;24.24;65.31
18509;BME280;9383;50.928;12.116;2023-07-29T12:28:06;98025.28;;;24.28;65.32
18509;BME280;9383;50.928;12.116;2023-07-29T12:30:33;98024.75;;;24.33;65.38
18509;BME280;9383;50.928;12.116;2023-07-29T12:33:00;98028.19;;;24.35;64.45
18509;BME280;9383;50.928;12.116;2023-07-29T12:35:37;98024.66;;;24.43;64.22
18509;BME280;9383;50.928;12.116;2023-07-29T12:38:03;98014.16;;;24.48;63.15
18509;BME280;9383;50.928;12.116;2023-07-29T12:40:30;98017.91;;;24.55;63.10
18509;BME280;9383;50.928;12.116;2023-07-29T12:42:57;98012.81;;;24.61;63.33
18509;BME280;9383;50.928;12.116;2023-07-29T12:45:24;98006.38;;;24.62;61.97
18509;BME280;9383;50.928;12.116;2023-07-29T12:47:54;97997.22;;;24.63;62.80
18509;BME280;9383;50.928;12.116;2023-07-29T12:50:20;97999.13;;;24.62;62.36
18509;BME280;9383;50.928;12.116;2023-07-29T12:52:47;98005.69;;;24.59;61.74
18509;BME280;9383;50.928;12.116;2023-07-29T12:55:14;98003.66;;;24.62;62.79
18509;BME280;9383;50.928;12.116;2023-07-29T12:57:44;98004.72;;;24.69;63.60
18509;BME280;9383;50.928;12.116;2023-07-29T13:00:11;97994.53;;;24.71;59.92
18509;BME280;9383;50.928;12.116;2023-07-29T13:02:38;97994.19;;;24.74;59.14
18509;BME280;9383;50.928;12.116;2023-07-29T13:05:05;97995.59;;;24.78;60.13
18509;BME280;9383;50.928;12.116;2023-07-29T13:07:32;97988.66;;;24.84;60.88
18509;BME280;9383;50.928;12.116;2023-07-29T13:09:58;97986.13;;;24.82;58.20
18509;BME280;9383;50.928;12.116;2023-07-29T13:12:25;97978.66;;;24.84;59.47
18509;BME280;9383;50.928;12.116;2023-07-29T13:14:52;97985.44;;;24.89;59.73